Ohiopyle, PA

12:47 PM EDT on September 05, 2015 (GMT -0400)
Donna's Weather | | Change Station
CLOSE
Current Station
Personal Weather Station
Location: Markleysburg, PA
Elevation: 2306 ft
Nearby Weather Stations

Elev 2306 ft 39.77 °N, 79.50 °W | Updated 15 seconds ago

Mostly Cloudy
Mostly Cloudy
76.5 °F
Feels Like 78 °F
N
0.0
Wind Variable Wind from WSW
Gusts 0.0 mph

Today
High -- | Low -- °F
--% Chance of Precip.
Yesterday
High -- | Low -- °F
Precip. -- in
6:49 AM 7:43 PM
Waning Gibbous, 47% visible
Pressure 30.32 in
Visibility 7.0 miles
Clouds Mostly Cloudy 1500 ft
Mostly Cloudy 2300 ft
Heat Index 78 °F
Dew Point 61 °F
Humidity 59%
Rainfall 0.00 in
Snow Depth Not available.
UV 5 out of 12
Pollen 10.20 out of 12
Air Quality Not available.
Flu Activity Not available.
METAR K2G4 051630Z AUTO 13007KT 7SM BKN015 BKN023 21/17 A3032 RMK AO1
Pressure 30.32 in
Visibility 7.0 miles
Clouds Mostly Cloudy 1500 ft
Mostly Cloudy 2300 ft
Heat Index 78 °F
Dew Point 61 °F
Humidity 59%
Rainfall 0.00 in
Snow Depth Not available.
UV 5 out of 12
Pollen 10.20 out of 12
Air Quality Not available.
Flu Activity Not available.
METAR K2G4 051630Z AUTO 13007KT 7SM BKN015 BKN023 21/17 A3032 RMK AO1

10-Day Weather Forecast

×

Almanac

Astronomy

Sep. 05, 2015 Rise Set
Actual Time
Civil Twilight
Nautical Twilight
Astronomical Twilight
Moon
Length of Visible Light
Length of Day
Tomorrow will be .
, % of the Moon is Illuminated

Today's Extremes

State Highs State Lows

Community

WunderPhotos

Upload Photos

1,852,498 photos uploaded!

WunderBlogs® & News

Nearby

Air Quality

  Air Quality AQ Index Pollutant
Not available.

Snow Depth

Station Depth Elevation

Earthquake Activity

City Distance Mag. Time & Date
Minimum magnitude displayed is 2.5.

Coastal Water Temperatures

Place Temperature

Stations

Nearby Weather Stations

Station Location Temp. Windchill Dew Point Humidity Wind Precip. Elev Updated Type